createdAt,value
2018-03-25T00:00:05.053Z,1003.56
2018-03-25T00:05:03.407Z,1003.56
2018-03-25T00:10:02.977Z,1003.51
2018-03-25T00:15:03.564Z,1003.51
2018-03-25T00:20:03.204Z,1003.59
2018-03-25T00:25:02.785Z,1003.53
2018-03-25T00:30:03.372Z,1003.55
2018-03-25T00:35:03.102Z,1003.6
2018-03-25T00:40:02.767Z,1003.59
2018-03-25T00:45:03.373Z,1003.56
2018-03-25T00:50:02.971Z,1003.62
2018-03-25T00:55:03.478Z,1003.63
2018-03-25T01:00:03.083Z,1003.61
2018-03-25T01:05:03.043Z,1003.63
2018-03-25T01:10:03.662Z,1003.67
2018-03-25T01:15:03.206Z,1003.67
2018-03-25T01:20:02.825Z,1003.62
2018-03-25T01:25:03.472Z,1003.62
2018-03-25T01:30:02.985Z,1003.61
2018-03-25T01:35:03.550Z,1003.69
2018-03-25T01:40:03.351Z,1003.73
2018-03-25T01:45:02.934Z,1003.78
2018-03-25T01:50:03.454Z,1003.79
2018-03-25T01:55:02.868Z,1003.76
2018-03-25T02:00:03.459Z,1003.79
2018-03-25T02:05:02.948Z,1003.73
2018-03-25T02:10:03.594Z,1003.77
2018-03-25T02:15:03.220Z,1003.71
2018-03-25T02:20:02.779Z,1003.72
2018-03-25T02:25:03.307Z,1003.75
2018-03-25T02:30:02.943Z,1003.79
2018-03-25T02:35:03.544Z,1003.77
2018-03-25T02:40:03.177Z,1003.78
2018-03-25T02:45:02.706Z,1003.9
2018-03-25T02:50:03.478Z,1003.82
2018-03-25T02:55:03.040Z,1003.9
2018-03-25T03:00:04.310Z,1003.98
2018-03-25T03:05:02.959Z,1003.99
2018-03-25T03:10:03.659Z,1004.01
2018-03-25T03:15:03.250Z,1003.97
2018-03-25T03:20:02.977Z,1003.98
2018-03-25T03:25:03.659Z,1004.04
2018-03-25T03:30:03.265Z,1004.12
2018-03-25T03:35:02.875Z,1004.22
2018-03-25T03:40:03.516Z,1004.23
2018-03-25T03:45:03.135Z,1004.27
2018-03-25T03:50:02.753Z,1004.38
2018-03-25T03:55:03.412Z,1004.32
2018-03-25T04:00:03.013Z,1004.35
2018-03-25T04:05:03.528Z,1004.34
2018-03-25T04:10:03.302Z,1004.36
2018-03-25T04:15:02.882Z,1004.45
2018-03-25T04:20:03.496Z,1004.49
2018-03-25T04:25:03.114Z,1004.55
2018-03-25T04:30:02.802Z,1004.47
2018-03-25T04:35:03.544Z,1004.52
2018-03-25T04:40:03.116Z,1004.56
2018-03-25T04:45:03.613Z,1004.55
2018-03-25T04:50:02.841Z,1004.6
2018-03-25T04:55:03.332Z,1004.63
2018-03-25T05:00:02.937Z,1004.67
2018-03-25T05:05:03.540Z,1004.68
2018-03-25T05:10:03.180Z,1004.72
2018-03-25T05:15:02.686Z,1004.73
2018-03-25T05:20:03.270Z,1004.75
2018-03-25T05:25:02.858Z,1004.8
2018-03-25T05:30:03.491Z,1004.8
2018-03-25T05:35:03.049Z,1004.81
2018-03-25T05:40:02.759Z,1004.84
2018-03-25T05:45:03.440Z,1004.93
2018-03-25T05:50:02.941Z,1005
2018-03-25T05:55:03.439Z,1005.05
2018-03-25T06:00:02.978Z,1005.09
2018-03-25T06:05:03.563Z,1005.11
2018-03-25T06:10:03.227Z,1005.15
2018-03-25T06:15:02.826Z,1005.2
2018-03-25T06:20:03.455Z,1005.29
2018-03-25T06:25:03.048Z,1005.41
2018-03-25T06:30:03.628Z,1005.45
2018-03-25T06:35:03.239Z,1005.55
2018-03-25T06:40:02.822Z,1005.62
2018-03-25T06:45:03.366Z,1005.73
2018-03-25T06:50:02.886Z,1005.76
2018-03-25T06:55:03.402Z,1005.74
2018-03-25T07:00:03.160Z,1005.78
2018-03-25T07:05:02.733Z,1005.81
2018-03-25T07:10:03.392Z,1005.93
2018-03-25T07:15:02.957Z,1006.03
2018-03-25T07:20:03.595Z,1006.12
2018-03-25T07:25:03.211Z,1006.15
2018-03-25T07:30:02.768Z,1006.28
2018-03-25T07:35:03.395Z,1006.31
2018-03-25T07:40:02.931Z,1006.35
2018-03-25T07:45:03.593Z,1006.43
2018-03-25T07:50:03.598Z,1006.44
2018-03-25T07:55:03.476Z,1006.54
2018-03-25T08:00:03.166Z,1006.55
2018-03-25T08:05:02.832Z,1006.56
2018-03-25T08:10:03.465Z,1006.61
2018-03-25T08:15:03.010Z,1006.64
2018-03-25T08:20:02.682Z,1006.69
2018-03-25T08:25:03.252Z,1006.7
2018-03-25T08:30:02.748Z,1006.69
2018-03-25T08:35:03.416Z,1006.71
2018-03-25T08:40:02.940Z,1006.73
2018-03-25T08:45:03.542Z,1006.79
2018-03-25T08:50:03.047Z,1006.9
2018-03-25T08:55:03.577Z,1006.99
2018-03-25T09:00:03.179Z,1006.93
2018-03-25T09:05:02.713Z,1007
2018-03-25T09:10:03.428Z,1007.02
2018-03-25T09:15:03.217Z,1007.02
2018-03-25T09:20:02.767Z,1006.97
2018-03-25T09:25:03.315Z,1007.05
2018-03-25T09:30:02.873Z,1007.02
2018-03-25T09:35:03.572Z,1007.04
2018-03-25T09:40:03.266Z,1007.04
2018-03-25T09:45:02.872Z,1007.09
2018-03-25T09:50:03.476Z,1007.15
2018-03-25T09:55:03.030Z,1007.22
2018-03-25T10:00:03.636Z,1007.17
2018-03-25T10:05:02.966Z,1007.1
2018-03-25T10:10:03.644Z,1007.12
2018-03-25T10:15:03.281Z,1007.16
2018-03-25T10:20:02.884Z,1007.16
2018-03-25T10:25:03.446Z,1007.21
2018-03-25T10:30:02.945Z,1007.23
2018-03-25T10:35:03.591Z,1007.3
2018-03-25T10:40:03.287Z,1007.33
2018-03-25T10:45:02.953Z,1007.31
2018-03-25T10:50:03.595Z,1007.27
2018-03-25T10:55:03.134Z,1007.31
2018-03-25T11:00:02.736Z,1007.26
2018-03-25T11:05:03.307Z,1007.31
2018-03-25T11:10:02.955Z,1007.31
2018-03-25T11:15:03.560Z,1007.4
2018-03-25T11:20:03.225Z,1007.38
2018-03-25T11:25:02.835Z,1007.4
2018-03-25T11:30:03.391Z,1007.41
2018-03-25T11:35:03.018Z,1007.43
2018-03-25T11:40:03.615Z,1007.39
2018-03-25T11:45:03.187Z,1007.4
2018-03-25T11:50:02.890Z,1007.4
2018-03-25T11:55:03.472Z,1007.47
2018-03-25T12:00:03.099Z,1007.45
2018-03-25T12:05:03.612Z,1007.48
2018-03-25T12:10:03.238Z,1007.47
2018-03-25T12:15:02.786Z,1007.47
2018-03-25T12:20:03.431Z,1007.53
2018-03-25T12:25:02.988Z,1007.54
2018-03-25T12:30:03.646Z,1007.54
2018-03-25T12:35:03.311Z,1007.65
2018-03-25T12:40:02.956Z,1007.58
2018-03-25T12:45:03.578Z,1007.63
2018-03-25T12:50:03.193Z,1007.66
2018-03-25T12:55:02.836Z,1007.73
2018-03-25T13:00:03.394Z,1007.68
2018-03-25T13:05:02.932Z,1007.63
2018-03-25T13:10:03.634Z,1007.65
2018-03-25T13:15:03.258Z,1007.6
2018-03-25T13:20:02.888Z,1007.67
2018-03-25T13:25:03.473Z,1007.64
2018-03-25T13:30:03.073Z,1007.69
2018-03-25T13:35:03.655Z,1007.66
2018-03-25T13:40:03.328Z,1007.72
2018-03-25T13:45:02.928Z,1007.78
2018-03-25T13:50:03.616Z,1007.8
2018-03-25T13:55:03.159Z,1007.67
2018-03-25T14:00:02.739Z,1007.71
2018-03-25T14:05:03.333Z,1007.69
2018-03-25T14:10:02.941Z,1007.77
2018-03-25T14:15:03.593Z,1007.8
2018-03-25T14:20:03.078Z,1007.86
2018-03-25T14:25:03.591Z,1007.88
2018-03-25T14:30:03.416Z,1007.79
2018-03-25T14:35:03.173Z,1007.88
2018-03-25T14:40:02.933Z,1007.86
2018-03-25T14:45:03.631Z,1007.86
2018-03-25T14:50:03.212Z,1007.91
2018-03-25T14:55:02.794Z,1007.92
2018-03-25T15:00:03.602Z,1007.94
2018-03-25T15:05:03.226Z,1007.93
2018-03-25T15:10:02.912Z,1008
2018-03-25T15:15:03.625Z,1008.01
2018-03-25T15:20:03.196Z,1008.03
2018-03-25T15:25:02.772Z,1007.98
2018-03-25T15:30:03.332Z,1008.11
2018-03-25T15:35:02.924Z,1008.16
2018-03-25T15:40:03.492Z,1008.13
2018-03-25T15:45:03.143Z,1008.17
2018-03-25T15:50:02.703Z,1008.13
2018-03-25T15:55:03.253Z,1008.25
2018-03-25T16:00:02.884Z,1008.29
2018-03-25T16:05:03.452Z,1008.38
2018-03-25T16:10:03.047Z,1008.4
2018-03-25T16:15:03.670Z,1008.39
2018-03-25T16:20:03.310Z,1008.43
2018-03-25T16:25:03.009Z,1008.47
2018-03-25T16:30:03.611Z,1008.58
2018-03-25T16:35:03.123Z,1008.62
2018-03-25T16:40:02.771Z,1008.65
2018-03-25T16:45:03.370Z,1008.67
2018-03-25T16:50:02.926Z,1008.62
2018-03-25T16:55:03.905Z,1008.62
2018-03-25T17:00:03.557Z,1008.83
2018-03-25T17:05:03.177Z,1008.84
2018-03-25T17:10:02.777Z,1008.9
2018-03-25T17:15:03.270Z,1008.91
2018-03-25T17:20:02.866Z,1009.08
2018-03-25T17:25:03.439Z,1009.21
2018-03-25T17:30:03.031Z,1009.22
2018-03-25T17:35:03.679Z,1009.23
2018-03-25T17:40:03.363Z,1009.26
2018-03-25T17:45:02.955Z,1009.37
2018-03-25T17:50:03.691Z,1009.39
2018-03-25T17:55:03.301Z,1009.38
2018-03-25T18:00:02.852Z,1009.45
2018-03-25T18:05:03.434Z,1009.55
2018-03-25T18:10:03.003Z,1009.63
2018-03-25T18:15:03.634Z,1009.65
2018-03-25T18:20:03.265Z,1009.66
2018-03-25T18:25:02.882Z,1009.7
2018-03-25T18:30:03.480Z,1009.81
2018-03-25T18:35:03.099Z,1009.88
2018-03-25T18:40:02.727Z,1009.98
2018-03-25T18:45:03.310Z,1010.03
2018-03-25T18:50:03.291Z,1010.07
2018-03-25T18:55:02.920Z,1010.16
2018-03-25T19:00:03.497Z,1010.24
2018-03-25T19:05:03.105Z,1010.24
2018-03-25T19:10:02.718Z,1010.35
2018-03-25T19:15:03.335Z,1010.35
2018-03-25T19:20:03.013Z,1010.41
2018-03-25T19:25:03.986Z,1010.42
2018-03-25T19:30:03.702Z,1010.47
2018-03-25T19:35:03.284Z,1010.52
2018-03-25T19:40:02.860Z,1010.53
2018-03-25T19:45:03.471Z,1010.59
2018-03-25T19:50:03.138Z,1010.64
2018-03-25T19:55:03.708Z,1010.68
2018-03-25T20:00:03.366Z,1010.67
2018-03-25T20:05:02.952Z,1010.76
2018-03-25T20:10:03.603Z,1010.78
2018-03-25T20:15:03.216Z,1010.84
2018-03-25T20:20:02.842Z,1010.92
2018-03-25T20:25:03.366Z,1010.92
2018-03-25T20:30:02.860Z,1010.93
2018-03-25T20:35:03.438Z,1011.05
2018-03-25T20:40:03.049Z,1011.1
2018-03-25T20:45:03.646Z,1011.08
2018-03-25T20:50:03.336Z,1011.07
2018-03-25T20:55:02.929Z,1011.19
2018-03-25T21:00:03.582Z,1011.19
2018-03-25T21:05:03.252Z,1011.24
2018-03-25T21:10:02.840Z,1011.32
2018-03-25T21:15:03.433Z,1011.35
2018-03-25T21:20:03.137Z,1011.38
2018-03-25T21:25:02.759Z,1011.41
2018-03-25T21:30:03.474Z,1011.42
2018-03-25T21:35:03.145Z,1011.44
2018-03-25T21:40:02.750Z,1011.5
2018-03-25T21:45:03.354Z,1011.47
2018-03-25T21:50:02.998Z,1011.43
2018-03-25T21:55:03.565Z,1011.42
2018-03-25T22:00:03.121Z,1011.4
2018-03-25T22:05:02.681Z,1011.41
2018-03-25T22:10:03.370Z,1011.5
2018-03-25T22:15:02.959Z,1011.57
2018-03-25T22:20:03.556Z,1011.59
2018-03-25T22:25:03.259Z,1011.53
2018-03-25T22:30:02.856Z,1011.61
2018-03-25T22:35:03.441Z,1011.58
2018-03-25T22:40:03.086Z,1011.65
2018-03-25T22:45:03.669Z,1011.65
2018-03-25T22:50:03.265Z,1011.68
2018-03-25T22:55:02.853Z,1011.68
2018-03-25T23:00:05.630Z,1011.78
2018-03-25T23:05:02.690Z,1011.75
2018-03-25T23:10:03.363Z,1011.7
2018-03-25T23:15:03.000Z,1011.7
2018-03-25T23:20:03.620Z,1011.72
2018-03-25T23:25:03.247Z,1011.76
2018-03-25T23:30:02.841Z,1011.79
2018-03-25T23:35:03.518Z,1011.68
2018-03-25T23:40:03.151Z,1011.69
2018-03-25T23:45:02.716Z,1011.74
2018-03-25T23:50:03.276Z,1011.7
2018-03-25T23:55:02.777Z,1011.72
